KNKX/NKX METAR and TAF weather

Enter ICAO airport designator
Station Type Date Time Source
KNKX METAR 2020/07/08 22:55 UTC NOAA

KNKX 082255Z 21008KT 10SM CLR 24/15 A2987 RMK AO2 SLP109 T02440150 $


Station Type Date Time Source
KNKX Decoded METAR 2020/07/08 22:55 UTC NOAA

MCAS MIRAMAR, CA, United States (KNKX) 32-52N 117-09W 146M
Jul 08, 2020 - 06:55 PM EDT / 2020.07.08 2255 UTC
Wind: from the SSW (210 degrees) at 9 MPH (8 KT):0
Visibility: 10 mile(s):0
Sky conditions: clear
Temperature: 75.9 F (24.4 C)
Dew Point: 59.0 F (15.0 C)
Relative Humidity: 55%
Pressure (altimeter): 29.87 in. Hg (1011 hPa)
ob: KNKX 082255Z 21008KT 10SM CLR 24/15 A2987 RMK AO2 SLP109 T02440150
cycle: 23

Station Type Date Time Source
KNKX TAF 2020/07/08 21:16 UTC NOAA

TAF KNKX 0821/0921 24007KT 9999 SKC QNH2983INS
BECMG 0905/0907 VRB05KT 9999 BKN012 QNH2985INS
TEMPO 0911/0916 OVC007
FM091730 27007KT 9999 SKC QNH2985INS T27/0821Z T16/0912Z

Example: see airport list